createdAt,value
2018-01-08T00:02:25.750Z,90.20
2018-01-08T00:04:53.365Z,90.50
2018-01-08T00:07:21.041Z,90.40
2018-01-08T00:09:48.653Z,90.10
2018-01-08T00:12:16.398Z,89.60
2018-01-08T00:14:44.247Z,90.00
2018-01-08T00:17:12.232Z,90.10
2018-01-08T00:19:39.894Z,90.10
2018-01-08T00:22:07.557Z,89.70
2018-01-08T00:24:35.213Z,90.20
2018-01-08T00:27:02.902Z,89.20
2018-01-08T00:29:30.527Z,89.30
2018-01-08T00:31:58.154Z,89.60
2018-01-08T00:34:25.825Z,88.90
2018-01-08T00:36:53.702Z,89.10
2018-01-08T00:39:21.313Z,87.70
2018-01-08T00:41:49.242Z,87.60
2018-01-08T00:44:16.897Z,88.50
2018-01-08T00:46:44.518Z,87.60
2018-01-08T00:49:12.175Z,87.10
2018-01-08T00:51:39.863Z,86.40
2018-01-08T00:54:07.498Z,83.20
2018-01-08T00:56:35.111Z,82.70
2018-01-08T00:59:02.761Z,82.00
2018-01-08T01:01:30.386Z,83.50
2018-01-08T01:03:58.070Z,85.30
2018-01-08T01:06:25.913Z,85.00
2018-01-08T01:08:53.537Z,88.20
2018-01-08T01:11:21.197Z,89.30
2018-01-08T01:13:49.588Z,88.40
2018-01-08T01:16:18.790Z,88.20
2018-01-08T01:18:46.409Z,88.60
2018-01-08T01:21:14.072Z,87.40
2018-01-08T01:23:41.734Z,87.40
2018-01-08T01:26:10.901Z,88.60
2018-01-08T01:28:38.513Z,88.80
2018-01-08T01:31:06.169Z,88.20
2018-01-08T01:33:33.838Z,86.20
2018-01-08T01:36:02.278Z,86.30
2018-01-08T01:38:30.024Z,86.20
2018-01-08T01:40:58.430Z,86.00
2018-01-08T01:43:27.454Z,84.80
2018-01-08T01:45:55.106Z,86.00
2018-01-08T01:48:23.486Z,85.40
2018-01-08T01:50:52.134Z,84.80
2018-01-08T01:53:19.754Z,84.50
2018-01-08T01:55:47.411Z,85.60
2018-01-08T01:58:15.062Z,85.50
2018-01-08T02:00:42.735Z,86.60
2018-01-08T02:03:10.409Z,85.90
2018-01-08T02:05:38.074Z,86.40
2018-01-08T02:08:05.859Z,86.50
2018-01-08T02:10:33.519Z,87.40
2018-01-08T02:13:01.145Z,87.90
2018-01-08T02:15:28.797Z,88.50
2018-01-08T02:17:56.448Z,88.90
2018-01-08T02:20:26.341Z,89.20
2018-01-08T02:22:54.552Z,89.30
2018-01-08T02:25:22.177Z,89.40
2018-01-08T02:27:50.206Z,89.40
2018-01-08T02:30:18.482Z,88.50
2018-01-08T02:32:46.146Z,89.10
2018-01-08T02:35:13.757Z,89.80
2018-01-08T02:37:41.470Z,88.00
2018-01-08T02:40:09.081Z,89.50
2018-01-08T02:42:36.701Z,89.60
2018-01-08T02:45:04.965Z,89.40
2018-01-08T02:47:32.621Z,90.00
2018-01-08T02:50:00.498Z,88.70
2018-01-08T02:52:28.946Z,90.30
2018-01-08T02:54:56.569Z,89.80
2018-01-08T02:57:24.222Z,90.00
2018-01-08T02:59:52.872Z,90.50
2018-01-08T03:02:20.587Z,89.80
2018-01-08T03:04:48.398Z,91.10
2018-01-08T03:07:16.054Z,91.30
2018-01-08T03:09:43.725Z,91.50
2018-01-08T03:12:11.341Z,90.80
2018-01-08T03:14:39.226Z,91.70
2018-01-08T03:17:06.843Z,91.80
2018-01-08T03:19:34.753Z,91.90
2018-01-08T03:22:02.378Z,91.50
2018-01-08T03:24:30.042Z,91.40
2018-01-08T03:26:57.659Z,91.10
2018-01-08T03:29:25.408Z,90.80
2018-01-08T03:31:53.036Z,90.50
2018-01-08T03:34:20.689Z,90.80
2018-01-08T03:36:48.478Z,90.90
2018-01-08T03:39:16.138Z,90.50
2018-01-08T03:41:43.788Z,90.70
2018-01-08T03:44:11.458Z,90.30
2018-01-08T03:46:39.109Z,91.00
2018-01-08T03:49:06.900Z,91.00
2018-01-08T03:51:34.563Z,90.80
2018-01-08T03:54:02.528Z,90.80
2018-01-08T03:56:30.209Z,91.50
2018-01-08T03:58:58.489Z,91.30
2018-01-08T04:01:26.881Z,91.10
2018-01-08T04:03:54.545Z,91.00
2018-01-08T04:06:22.277Z,90.10
2018-01-08T04:08:49.890Z,91.10
2018-01-08T04:11:17.603Z,91.10
2018-01-08T04:13:45.266Z,91.70
2018-01-08T04:16:13.066Z,91.70
2018-01-08T04:18:40.733Z,92.00
2018-01-08T04:21:09.095Z,91.70
2018-01-08T04:23:36.742Z,91.90
2018-01-08T04:26:04.360Z,91.10
2018-01-08T04:28:32.164Z,91.80
2018-01-08T04:31:00.850Z,92.00
2018-01-08T04:33:29.230Z,90.70
2018-01-08T04:35:57.705Z,91.60
2018-01-08T04:38:25.329Z,91.60
2018-01-08T04:40:52.994Z,91.50
2018-01-08T04:43:20.609Z,91.10
2018-01-08T04:45:48.294Z,90.90
2018-01-08T04:48:15.958Z,91.30
2018-01-08T04:50:43.643Z,91.30
2018-01-08T04:53:11.304Z,90.80
2018-01-08T04:55:38.957Z,91.40
2018-01-08T04:58:06.570Z,91.70
2018-01-08T05:00:34.235Z,91.50
2018-01-08T05:03:01.885Z,91.30
2018-01-08T05:05:29.534Z,91.40
2018-01-08T05:07:57.929Z,91.10
2018-01-08T05:10:25.712Z,91.20
2018-01-08T05:12:53.389Z,91.40
2018-01-08T05:15:21.015Z,91.50
2018-01-08T05:17:48.681Z,91.60
2018-01-08T05:20:16.590Z,91.50
2018-01-08T05:22:44.905Z,91.60
2018-01-08T05:25:12.538Z,91.00
2018-01-08T05:27:40.945Z,91.60
2018-01-08T05:30:08.605Z,91.80
2018-01-08T05:32:36.255Z,91.40
2018-01-08T05:35:03.910Z,91.70
2018-01-08T05:37:32.647Z,91.80
2018-01-08T05:40:00.632Z,91.80
2018-01-08T05:42:28.445Z,91.90
2018-01-08T05:44:56.726Z,91.60
2018-01-08T05:47:24.930Z,91.50
2018-01-08T05:49:54.309Z,91.30
2018-01-08T05:52:22.264Z,91.70
2018-01-08T05:54:52.688Z,91.50
2018-01-08T05:57:20.582Z,91.00
2018-01-08T05:59:48.960Z,91.60
2018-01-08T06:02:16.585Z,91.50
2018-01-08T06:04:45.025Z,91.50
2018-01-08T06:07:14.098Z,91.80
2018-01-08T06:09:41.734Z,91.10
2018-01-08T06:12:09.936Z,91.60
2018-01-08T06:14:38.028Z,91.40
2018-01-08T06:17:06.679Z,91.50
2018-01-08T06:19:34.987Z,91.40
2018-01-08T06:22:02.821Z,90.90
2018-01-08T06:24:31.278Z,91.30
2018-01-08T06:26:59.282Z,91.20
2018-01-08T06:29:27.436Z,91.20
2018-01-08T06:31:55.153Z,90.80
2018-01-08T06:34:22.839Z,91.30
2018-01-08T06:36:50.550Z,91.30
2018-01-08T06:39:18.845Z,91.20
2018-01-08T06:41:48.917Z,91.20
2018-01-08T06:44:17.177Z,91.30
2018-01-08T06:46:45.566Z,91.40
2018-01-08T06:49:13.346Z,91.20
2018-01-08T06:51:41.108Z,91.30
2018-01-08T06:54:08.730Z,91.50
2018-01-08T06:56:37.414Z,91.50
2018-01-08T06:59:05.029Z,91.50
2018-01-08T07:01:32.721Z,91.60
2018-01-08T07:04:00.566Z,91.70
2018-01-08T07:06:29.012Z,91.60
2018-01-08T07:08:58.714Z,91.60
2018-01-08T07:11:27.085Z,91.50
2018-01-08T07:13:54.873Z,91.40
2018-01-08T07:16:22.493Z,91.10
2018-01-08T07:18:50.307Z,91.00
2018-01-08T07:21:18.128Z,90.80
2018-01-08T07:23:46.649Z,90.60
2018-01-08T07:26:15.307Z,90.00
2018-01-08T07:28:43.066Z,90.00
2018-01-08T07:31:10.709Z,89.90
2018-01-08T07:33:38.539Z,89.60
2018-01-08T07:36:06.190Z,89.00
2018-01-08T07:38:33.911Z,89.10
2018-01-08T07:41:01.605Z,88.00
2018-01-08T07:43:29.978Z,87.90
2018-01-08T07:45:57.729Z,87.60
2018-01-08T07:48:25.961Z,89.40
2018-01-08T07:50:53.702Z,89.70
2018-01-08T07:53:21.633Z,88.50
2018-01-08T07:55:49.483Z,88.60
2018-01-08T07:58:17.158Z,88.40
2018-01-08T08:00:44.930Z,88.40
2018-01-08T08:03:12.549Z,87.10
2018-01-08T08:05:40.227Z,86.00
2018-01-08T08:08:07.861Z,85.20
2018-01-08T08:10:36.588Z,85.60
2018-01-08T08:13:04.230Z,85.20
2018-01-08T08:15:31.856Z,85.20
2018-01-08T08:18:00.109Z,82.00
2018-01-08T08:20:27.942Z,82.30
2018-01-08T08:22:55.789Z,81.60
2018-01-08T08:25:23.422Z,80.70
2018-01-08T08:27:51.082Z,80.30
2018-01-08T08:30:18.768Z,78.80
2018-01-08T08:32:46.390Z,80.50
2018-01-08T08:35:15.090Z,78.60
2018-01-08T08:37:42.898Z,76.70
2018-01-08T08:40:10.564Z,76.90
2018-01-08T08:42:38.792Z,77.30
2018-01-08T08:45:06.454Z,77.50
2018-01-08T08:47:34.098Z,77.00
2018-01-08T08:50:02.445Z,75.80
2018-01-08T08:52:30.845Z,72.90
2018-01-08T08:54:58.498Z,72.70
2018-01-08T08:57:26.963Z,69.80
2018-01-08T08:59:55.617Z,70.50
2018-01-08T09:02:23.276Z,70.60
2018-01-08T09:04:51.064Z,71.40
2018-01-08T09:07:18.963Z,69.90
2018-01-08T09:09:46.594Z,69.90
2018-01-08T09:12:14.262Z,68.00
2018-01-08T09:14:41.929Z,67.90
2018-01-08T09:17:09.647Z,64.00
2018-01-08T09:19:37.427Z,64.80
2018-01-08T09:22:05.480Z,65.10
2018-01-08T09:24:33.933Z,61.40
2018-01-08T09:27:01.549Z,62.20
2018-01-08T09:29:29.296Z,62.20
2018-01-08T09:31:56.917Z,60.30
2018-01-08T09:34:24.569Z,59.10
2018-01-08T09:36:52.189Z,59.50
2018-01-08T09:39:19.869Z,58.70
2018-01-08T09:41:48.245Z,54.40
2018-01-08T09:44:16.678Z,52.20
2018-01-08T09:46:44.286Z,52.50
2018-01-08T09:49:12.678Z,54.90
2018-01-08T09:51:40.354Z,55.10
2018-01-08T09:54:08.037Z,55.40
2018-01-08T09:56:35.698Z,51.70
2018-01-08T09:59:03.325Z,51.10
2018-01-08T10:01:30.973Z,50.80
2018-01-08T10:04:11.155Z,49.90
2018-01-08T10:06:50.605Z,50.40
2018-01-08T10:09:29.885Z,50.30
2018-01-08T10:12:09.570Z,48.60
2018-01-08T10:14:48.977Z,48.30
2018-01-08T10:17:28.330Z,45.80
2018-01-08T10:19:57.697Z,47.00
2018-01-08T10:22:26.349Z,47.00
2018-01-08T10:24:54.009Z,47.10
2018-01-08T10:27:21.641Z,44.90
2018-01-08T10:29:49.310Z,47.80
2018-01-08T10:32:17.049Z,45.70
2018-01-08T10:34:44.738Z,44.80
2018-01-08T10:37:12.394Z,45.30
2018-01-08T10:39:40.107Z,42.10
2018-01-08T10:42:14.178Z,43.70
2018-01-08T10:44:47.390Z,43.90
2018-01-08T10:47:20.533Z,43.20
2018-01-08T10:49:53.769Z,42.50
2018-01-08T10:52:20.904Z,41.70
2018-01-08T10:55:05.185Z,42.10
2018-01-08T10:57:33.601Z,40.80
2018-01-08T11:00:01.269Z,40.80
2018-01-08T11:02:35.645Z,41.10
2018-01-08T11:05:03.535Z,40.40
2018-01-08T11:07:32.117Z,39.80
2018-01-08T11:09:59.782Z,39.40
2018-01-08T11:12:27.436Z,40.00
2018-01-08T11:14:56.286Z,39.20
2018-01-08T11:17:23.965Z,40.30
2018-01-08T11:19:51.857Z,40.40
2018-01-08T11:22:19.505Z,42.20
2018-01-08T11:24:47.161Z,38.50
2018-01-08T11:27:14.883Z,37.70
2018-01-08T11:29:42.532Z,38.00
2018-01-08T11:32:10.549Z,37.60
2018-01-08T11:34:38.411Z,39.00
2018-01-08T11:37:06.084Z,37.60
2018-01-08T11:39:33.779Z,37.30
2018-01-08T11:42:01.438Z,36.70
2018-01-08T11:44:29.101Z,37.40
2018-01-08T11:46:56.982Z,36.20
2018-01-08T11:49:24.742Z,36.40
2018-01-08T11:51:52.405Z,36.70
2018-01-08T11:54:20.065Z,38.20
2018-01-08T11:56:47.761Z,37.50
2018-01-08T11:59:16.202Z,36.80
2018-01-08T12:01:43.915Z,37.70
2018-01-08T12:04:11.598Z,34.80
2018-01-08T12:06:39.901Z,33.70
2018-01-08T12:09:08.244Z,34.40
2018-01-08T12:11:35.937Z,33.50
2018-01-08T12:14:03.601Z,35.70
2018-01-08T12:16:31.300Z,36.40
2018-01-08T12:18:59.007Z,34.90
2018-01-08T12:21:26.885Z,32.70
2018-01-08T12:23:55.246Z,35.10
2018-01-08T12:26:22.914Z,35.10
2018-01-08T12:28:50.570Z,32.30
2018-01-08T12:31:18.240Z,31.10
2018-01-08T12:33:45.886Z,31.40
2018-01-08T12:36:13.547Z,31.80
2018-01-08T12:38:41.181Z,31.40
2018-01-08T12:41:08.838Z,34.20
2018-01-08T12:43:36.449Z,28.70
2018-01-08T12:46:04.134Z,30.70
2018-01-08T12:48:31.965Z,30.60
2018-01-08T12:50:59.578Z,27.60
2018-01-08T12:53:27.256Z,29.00
2018-01-08T12:55:54.946Z,27.90
2018-01-08T12:58:22.599Z,27.40
2018-01-08T13:00:50.478Z,28.70
2018-01-08T13:03:18.178Z,28.60
2018-01-08T13:05:46.006Z,28.30
2018-01-08T13:08:13.761Z,28.50
2018-01-08T13:10:41.529Z,28.90
2018-01-08T13:13:09.150Z,27.40
2018-01-08T13:15:36.834Z,27.70
2018-01-08T13:18:04.520Z,28.50
2018-01-08T13:20:32.274Z,28.50
2018-01-08T13:23:00.707Z,27.80
2018-01-08T13:25:28.503Z,27.80
2018-01-08T13:27:56.155Z,27.10
2018-01-08T13:30:23.974Z,27.60
2018-01-08T13:32:52.383Z,27.90
2018-01-08T13:35:20.088Z,27.80
2018-01-08T13:37:48.078Z,28.10
2018-01-08T13:40:16.657Z,28.70
2018-01-08T13:42:45.112Z,29.00
2018-01-08T13:45:14.242Z,29.00
2018-01-08T13:47:43.117Z,28.10
2018-01-08T13:50:11.045Z,28.00
2018-01-08T13:52:38.731Z,27.70
2018-01-08T13:55:06.577Z,29.30
2018-01-08T13:57:36.082Z,27.10
2018-01-08T14:00:03.938Z,27.00
2018-01-08T14:02:31.924Z,28.20
2018-01-08T14:04:59.619Z,28.00
2018-01-08T14:07:27.985Z,28.00
2018-01-08T14:09:56.348Z,28.10
2018-01-08T14:12:24.011Z,28.40
2018-01-08T14:14:53.185Z,28.50
2018-01-08T14:17:20.842Z,28.40
2018-01-08T14:19:49.173Z,29.00
2018-01-08T14:22:16.806Z,28.30
2018-01-08T14:24:44.463Z,28.70
2018-01-08T14:27:12.129Z,30.00
2018-01-08T14:29:39.802Z,28.10
2018-01-08T14:32:08.231Z,29.30
2018-01-08T14:34:36.406Z,29.10
2018-01-08T14:37:04.094Z,29.50
2018-01-08T14:39:32.486Z,29.50
2018-01-08T14:42:00.330Z,29.40
2018-01-08T14:44:27.990Z,29.30
2018-01-08T14:46:56.578Z,30.40
2018-01-08T14:49:24.333Z,30.80
2018-01-08T14:51:52.094Z,32.40
2018-01-08T14:54:19.762Z,33.70
2018-01-08T14:56:47.380Z,34.20
2018-01-08T14:59:15.176Z,35.70
2018-01-08T15:01:43.803Z,37.70
2018-01-08T15:04:12.278Z,39.00
2018-01-08T15:06:39.932Z,39.10
2018-01-08T15:09:08.336Z,38.90
2018-01-08T15:11:36.000Z,39.60
2018-01-08T15:14:03.658Z,38.40
2018-01-08T15:16:31.331Z,39.40
2018-01-08T15:18:59.006Z,39.60
2018-01-08T15:21:26.806Z,39.70
2018-01-08T15:23:54.481Z,39.40
2018-01-08T15:26:22.913Z,41.10
2018-01-08T15:28:50.579Z,41.20
2018-01-08T15:31:18.258Z,39.80
2018-01-08T15:33:47.971Z,40.00
2018-01-08T15:36:15.586Z,40.00
2018-01-08T15:38:43.430Z,40.10
2018-01-08T15:41:11.238Z,39.50
2018-01-08T15:43:39.402Z,39.20
2018-01-08T15:46:07.679Z,39.70
2018-01-08T15:48:38.340Z,40.30
2018-01-08T15:51:07.238Z,39.20
2018-01-08T15:53:35.675Z,40.60
2018-01-08T15:56:03.294Z,39.00
2018-01-08T15:58:31.109Z,40.60
2018-01-08T16:00:58.758Z,40.60
2018-01-08T16:03:26.373Z,41.70
2018-01-08T16:05:54.791Z,40.80
2018-01-08T16:08:22.466Z,40.70
2018-01-08T16:10:50.082Z,40.70
2018-01-08T16:13:17.833Z,42.70
2018-01-08T16:15:45.454Z,42.70
2018-01-08T16:18:13.097Z,43.10
2018-01-08T16:20:40.752Z,42.80
2018-01-08T16:23:08.415Z,42.70
2018-01-08T16:25:36.021Z,42.90
2018-01-08T16:28:03.962Z,43.60
2018-01-08T16:30:31.613Z,43.50
2018-01-08T16:32:59.482Z,42.90
2018-01-08T16:35:27.263Z,43.50
2018-01-08T16:37:54.884Z,43.00
2018-01-08T16:40:22.858Z,42.90
2018-01-08T16:42:50.478Z,43.40
2018-01-08T16:45:18.121Z,43.30
2018-01-08T16:47:46.697Z,40.80
2018-01-08T16:50:14.320Z,42.40
2018-01-08T16:52:41.976Z,43.30
2018-01-08T16:55:10.169Z,41.40
2018-01-08T16:57:37.826Z,40.50
2018-01-08T17:00:05.474Z,41.80
2018-01-08T17:02:33.127Z,39.90
2018-01-08T17:05:00.741Z,41.20
2018-01-08T17:07:29.174Z,40.50
2018-01-08T17:09:56.933Z,40.40
2018-01-08T17:12:24.588Z,40.20
2018-01-08T17:14:52.248Z,38.50
2018-01-08T17:17:19.925Z,38.90
2018-01-08T17:19:47.589Z,38.70
2018-01-08T17:22:19.772Z,38.40
2018-01-08T17:24:47.753Z,38.60
2018-01-08T17:27:16.187Z,39.30
2018-01-08T17:29:43.807Z,37.80
2018-01-08T17:32:11.463Z,39.30
2018-01-08T17:34:39.937Z,38.40
2018-01-08T17:37:08.324Z,38.00
2018-01-08T17:39:36.158Z,38.10
2018-01-08T17:42:03.859Z,37.20
2018-01-08T17:44:31.532Z,38.80
2018-01-08T17:46:59.228Z,38.60
2018-01-08T17:49:27.030Z,38.60
2018-01-08T17:51:54.790Z,38.90
2018-01-08T17:54:22.414Z,39.00
2018-01-08T17:59:42.779Z,38.00
2018-01-08T18:02:10.438Z,38.80
2018-01-08T18:04:38.098Z,38.60
2018-01-08T18:07:05.809Z,38.40
2018-01-08T18:09:33.571Z,38.50
2018-01-08T18:12:01.379Z,38.10
2018-01-08T18:14:28.989Z,38.90
2018-01-08T18:16:56.661Z,39.70
2018-01-08T18:19:24.471Z,39.50
2018-01-08T18:21:52.117Z,38.30
2018-01-08T18:24:20.535Z,39.70
2018-01-08T18:26:48.205Z,39.50
2018-01-08T18:29:16.857Z,40.00
2018-01-08T18:31:44.478Z,39.70
2018-01-08T18:34:12.142Z,36.80
2018-01-08T18:36:40.606Z,39.10
2018-01-08T18:39:08.228Z,38.90
2018-01-08T18:41:35.862Z,38.10
2018-01-08T18:44:03.532Z,39.40
2018-01-08T18:46:31.154Z,38.80
2018-01-08T18:48:58.770Z,38.60
2018-01-08T18:51:26.446Z,38.10
2018-01-08T18:53:54.056Z,37.50
2018-01-08T18:56:22.435Z,39.40
2018-01-08T18:58:50.851Z,38.20
2018-01-08T19:01:18.506Z,37.70
2018-01-08T19:03:46.126Z,39.10
2018-01-08T19:06:14.501Z,38.80
2018-01-08T19:08:42.933Z,37.20
2018-01-08T19:11:10.549Z,38.00
2018-01-08T19:13:38.981Z,38.00
2018-01-08T19:16:06.755Z,37.90
2018-01-08T19:18:34.370Z,38.50
2018-01-08T19:21:02.030Z,36.20
2018-01-08T19:23:29.645Z,36.30
2018-01-08T19:25:57.294Z,38.20
2018-01-08T19:28:24.914Z,37.00
2018-01-08T19:30:52.658Z,35.70
2018-01-08T19:33:20.334Z,36.50
2018-01-08T19:35:47.991Z,39.10
2018-01-08T19:38:15.610Z,38.50
2018-01-08T19:40:43.267Z,38.40
2018-01-08T19:43:10.905Z,38.90
2018-01-08T19:45:38.566Z,36.40
2018-01-08T19:48:06.199Z,37.20
2018-01-08T19:50:33.819Z,36.90
2018-01-08T19:53:02.298Z,37.70
2018-01-08T19:55:30.722Z,36.60
2018-01-08T19:57:58.389Z,37.40
2018-01-08T20:00:26.022Z,37.50
2018-01-08T20:02:53.643Z,36.70
2018-01-08T20:05:21.301Z,35.90
2018-01-08T20:07:48.957Z,34.40
2018-01-08T20:10:16.573Z,34.20
2018-01-08T20:12:44.231Z,34.20
2018-01-08T20:15:11.871Z,34.00
2018-01-08T20:17:39.526Z,33.70
2018-01-08T20:20:07.947Z,33.70
2018-01-08T20:22:35.605Z,33.20
2018-01-08T20:25:03.291Z,32.50
2018-01-08T20:27:30.989Z,33.00
2018-01-08T20:29:59.417Z,31.60
2018-01-08T20:32:27.047Z,31.70
2018-01-08T20:34:54.661Z,29.90
2018-01-08T20:37:22.330Z,30.00
2018-01-08T20:39:50.749Z,28.90
2018-01-08T20:42:18.363Z,28.70
2018-01-08T20:44:46.034Z,29.40
2018-01-08T20:47:14.422Z,27.40
2018-01-08T20:49:42.801Z,28.20
2018-01-08T20:52:11.234Z,27.40
2018-01-08T20:54:38.906Z,28.40
2018-01-08T20:57:06.530Z,28.70
2018-01-08T20:59:34.149Z,28.00
2018-01-08T21:02:02.569Z,28.40
2018-01-08T21:04:30.857Z,27.50
2018-01-08T21:06:58.514Z,27.10
2018-01-08T21:09:26.133Z,27.90
2018-01-08T21:11:53.802Z,26.90
2018-01-08T21:14:21.512Z,27.90
2018-01-08T21:16:49.141Z,27.70
2018-01-08T21:19:16.790Z,29.30
2018-01-08T21:21:45.210Z,27.30
2018-01-08T21:24:12.869Z,26.30
2018-01-08T21:26:40.487Z,25.80
2018-01-08T21:29:08.097Z,27.60
2018-01-08T21:31:35.750Z,26.30
2018-01-08T21:34:03.383Z,26.90
2018-01-08T21:36:31.868Z,25.50
2018-01-08T21:38:59.476Z,25.90
2018-01-08T21:41:28.178Z,25.00
2018-01-08T21:43:55.796Z,24.90
2018-01-08T21:46:23.654Z,24.30
2018-01-08T21:48:51.274Z,23.80
2018-01-08T21:51:18.925Z,24.00
2018-01-08T21:53:46.566Z,24.50
2018-01-08T21:56:14.222Z,23.90
2018-01-08T21:58:41.861Z,24.40
2018-01-08T22:01:09.518Z,24.20
2018-01-08T22:03:37.164Z,22.60
2018-01-08T22:06:04.789Z,21.70
2018-01-08T22:08:32.451Z,22.40
2018-01-08T22:11:00.669Z,21.70
2018-01-08T22:13:28.520Z,22.20
2018-01-08T22:15:56.344Z,22.10
2018-01-08T22:18:24.045Z,21.20
2018-01-08T22:20:51.719Z,21.80
2018-01-08T22:23:19.485Z,22.80
2018-01-08T22:25:47.094Z,22.50
2018-01-08T22:28:14.745Z,22.50
2018-01-08T22:30:43.386Z,22.70
2018-01-08T22:33:11.446Z,22.80
2018-01-08T22:35:39.069Z,23.30
2018-01-08T22:38:06.720Z,22.70
2018-01-08T22:40:35.135Z,23.10
2018-01-08T22:43:04.969Z,23.60
2018-01-08T22:45:32.733Z,24.30
2018-01-08T22:48:00.382Z,23.40
2018-01-08T22:50:28.061Z,23.10
2018-01-08T22:52:55.670Z,22.30
2018-01-08T22:55:24.093Z,22.50
2018-01-08T22:57:51.853Z,23.00
2018-01-08T23:00:19.466Z,22.40
2018-01-08T23:02:47.122Z,21.80
2018-01-08T23:05:15.049Z,21.90
2018-01-08T23:07:42.709Z,22.90
2018-01-08T23:10:11.089Z,23.10
2018-01-08T23:12:39.468Z,22.90
2018-01-08T23:15:07.837Z,22.80
2018-01-08T23:17:36.217Z,22.60
2018-01-08T23:20:05.318Z,23.10
2018-01-08T23:22:32.969Z,23.10
2018-01-08T23:25:01.345Z,22.10
2018-01-08T23:27:29.685Z,21.80
2018-01-08T23:29:57.360Z,22.00
2018-01-08T23:32:25.011Z,21.50
2018-01-08T23:34:52.672Z,20.00
2018-01-08T23:37:20.282Z,21.80
2018-01-08T23:39:48.717Z,22.30
2018-01-08T23:42:16.334Z,21.40
2018-01-08T23:44:43.942Z,20.80
2018-01-08T23:47:12.157Z,21.70
2018-01-08T23:49:39.770Z,21.30
2018-01-08T23:52:07.417Z,21.40
2018-01-08T23:54:35.062Z,20.40
2018-01-08T23:57:03.544Z,21.20
2018-01-08T23:59:31.198Z,19.60
